Time;durP1;ratioP1;P1;durP2;ratioP2;P2;SDS_P1;SDS_P2;PMS_P1;PMS_P2;Temp;Humidity;BMP_temperature;BMP_pressure;BME280_temperature;BME280_humidity;BME280_pressure;Samples;Min_cycle;Max_cycle;Signal;HPM_P1;HPM_P2
2023/01/02 04:07:48;;;;;;;5.60;4.07;;;14.60;74.60;;;;;;5781082;23;20061;-70
2023/01/02 04:10:16;;;;;;;5.88;4.75;;;14.60;74.50;;;;;;4882602;29;20068;-72
2023/01/02 04:12:46;;;;;;;7.63;4.63;;;14.60;74.60;;;;;;4883041;29;20052;-73
2023/01/02 04:15:13;;;;;;;9.63;5.57;;;14.60;74.60;;;;;;4882721;29;20045;-72
2023/01/02 04:18:10;;;;;;;7.22;4.72;;;14.60;74.60;;;;;;4882890;29;20196;-71
2023/01/02 04:20:43;;;;;;;5.90;4.38;;;14.60;74.60;;;;;;4881697;29;20071;-73
2023/01/02 04:23:20;;;;;;;6.53;4.35;;;14.60;74.70;;;;;;4882629;29;20041;-72
2023/01/02 04:25:55;;;;;;;6.13;4.32;;;14.70;74.80;;;;;;4882626;29;20121;-72
2023/01/02 04:28:27;;;;;;;9.65;4.57;;;14.70;74.90;;;;;;4882602;29;20056;-72
2023/01/02 04:31:23;;;;;;;6.10;4.18;;;14.70;75.00;;;;;;4882591;29;20160;-76
2023/01/02 04:33:53;;;;;;;7.80;4.05;;;14.70;75.00;;;;;;4866342;29;20099;-76
2023/01/02 04:36:19;;;;;;;10.88;3.90;;;14.70;75.00;;;;;;4882378;29;20084;-77
2023/01/02 04:38:45;;;;;;;6.13;3.97;;;14.70;75.00;;;;;;4882957;29;20095;-75
2023/01/02 04:41:25;;;;;;;5.90;3.90;;;14.70;75.00;;;;;;4882343;29;20064;-77
2023/01/02 04:43:57;;;;;;;7.60;4.25;;;14.70;75.00;;;;;;4882122;29;20053;-81
2023/01/02 04:46:25;;;;;;;5.20;3.75;;;14.70;75.10;;;;;;4882088;29;20048;-77
2023/01/02 04:48:51;;;;;;;8.80;3.80;;;14.70;75.10;;;;;;4880361;29;20049;-72
2023/01/02 04:51:17;;;;;;;5.05;3.67;;;14.70;75.10;;;;;;4882420;29;20065;-74
2023/01/02 04:53:45;;;;;;;4.60;3.20;;;14.70;75.10;;;;;;4882104;29;20048;-73
2023/01/02 04:56:11;;;;;;;5.25;3.38;;;14.80;75.10;;;;;;4882246;29;20111;-74
2023/01/02 04:58:37;;;;;;;6.03;3.90;;;14.70;75.10;;;;;;4882052;29;20057;-74
2023/01/02 05:01:08;;;;;;;7.00;3.35;;;14.80;75.20;;;;;;4881957;29;20075;-76
2023/01/02 05:03:37;;;;;;;4.50;3.17;;;14.70;75.10;;;;;;4881895;29;20052;-74
2023/01/02 05:06:03;;;;;;;5.45;3.20;;;14.80;75.20;;;;;;4881931;29;20439;-75
2023/01/02 05:08:28;;;;;;;5.35;3.40;;;14.80;75.20;;;;;;4881897;29;20143;-75
2023/01/02 05:10:54;;;;;;;3.70;2.80;;;14.70;75.20;;;;;;4881782;29;20053;-75
2023/01/02 05:13:20;;;;;;;7.07;3.17;;;14.80;75.30;;;;;;4881955;29;20365;-73
2023/01/02 05:15:52;;;;;;;4.30;3.15;;;14.80;75.20;;;;;;4882176;29;20049;-72
2023/01/02 05:18:18;;;;;;;3.05;2.60;;;14.80;75.20;;;;;;4881924;29;20053;-75
2023/01/02 05:20:43;;;;;;;3.45;2.72;;;14.80;75.20;;;;;;4881930;29;20120;-71
2023/01/02 05:25:54;;;;;;;4.55;2.80;;;14.80;75.50;;;;;;4865466;29;20053;-72
2023/01/02 05:28:20;;;;;;;3.85;3.03;;;14.80;75.20;;;;;;4881592;29;20049;-73
2023/01/02 05:30:48;;;;;;;3.75;2.70;;;14.80;75.20;;;;;;4881391;29;20051;-72
2023/01/02 05:33:14;;;;;;;4.50;3.03;;;14.80;75.20;;;;;;4881678;29;20055;-73
2023/01/02 05:35:40;;;;;;;3.42;2.53;;;14.80;75.10;;;;;;4881427;29;20517;-70
2023/01/02 05:38:05;;;;;;;4.90;2.97;;;14.80;75.10;;;;;;4881904;29;20060;-72
2023/01/02 05:40:31;;;;;;;4.00;3.15;;;14.70;75.00;;;;;;4881534;29;20425;-71
2023/01/02 05:42:58;;;;;;;4.80;3.00;;;14.70;74.90;;;;;;4881173;29;20350;-71
2023/01/02 05:45:24;;;;;;;5.35;3.50;;;14.70;74.90;;;;;;4881601;29;20059;-72
2023/01/02 05:47:49;;;;;;;4.30;3.20;;;14.80;75.00;;;;;;4881618;29;20080;-72
2023/01/02 05:50:15;;;;;;;5.25;3.47;;;14.70;74.80;;;;;;4881209;29;20453;-71
2023/01/02 05:52:41;;;;;;;6.65;3.60;;;14.70;74.70;;;;;;4881229;29;20112;-71
2023/01/02 05:55:07;;;;;;;8.52;3.85;;;14.70;74.60;;;;;;4881777;29;20140;-72
2023/01/02 05:57:34;;;;;;;4.28;3.17;;;14.70;74.50;;;;;;4880827;29;20388;-73
2023/01/02 06:00:00;;;;;;;4.57;2.78;;;14.70;74.30;;;;;;4881263;29;20064;-71
2023/01/02 06:02:25;;;;;;;4.20;2.72;;;14.70;73.90;;;;;;4881087;29;20416;-73
2023/01/02 06:04:51;;;;;;;6.28;2.30;;;14.70;74.20;;;;;;4881085;29;20041;-73
2023/01/02 06:07:17;;;;;;;3.70;1.90;;;14.60;73.40;;;;;;4880925;29;20067;-79
2023/01/02 06:09:43;;;;;;;4.20;2.00;;;14.60;73.10;;;;;;4880775;29;20075;-82
2023/01/02 06:12:08;;;;;;;4.30;2.03;;;14.60;73.10;;;;;;4881529;29;20437;-75
2023/01/02 06:14:34;;;;;;;4.68;1.90;;;14.60;73.50;;;;;;4880956;29;20064;-75
2023/01/02 06:17:00;;;;;;;3.97;1.30;;;14.60;73.90;;;;;;4865025;29;20092;-76
2023/01/02 06:19:26;;;;;;;4.93;1.58;;;14.70;73.90;;;;;;4880864;29;20164;-74
2023/01/02 06:21:52;;;;;;;2.63;1.50;;;14.80;73.90;;;;;;4880718;29;20052;-74
2023/01/02 06:24:17;;;;;;;6.97;1.80;;;15.00;73.90;;;;;;4881126;29;20379;-72
2023/01/02 06:26:43;;;;;;;4.90;1.83;;;15.10;73.10;;;;;;4881264;29;20431;-73
2023/01/02 06:29:09;;;;;;;4.45;0.82;;;14.90;73.40;;;;;;4881160;29;20049;-73
2023/01/02 06:31:35;;;;;;;6.45;1.00;;;15.10;74.20;;;;;;4880689;29;20088;-72
2023/01/02 06:34:03;;;;;;;3.90;1.48;;;15.30;74.10;;;;;;4880785;29;20075;-72
2023/01/02 06:36:30;;;;;;;3.90;1.15;;;15.40;74.00;;;;;;4880847;29;20049;-71
2023/01/02 06:38:57;;;;;;;10.15;1.35;;;15.40;73.70;;;;;;4880900;29;20053;-73
2023/01/02 06:41:23;;;;;;;7.20;1.38;;;15.50;73.80;;;;;;4864365;29;20060;-73
2023/01/02 06:43:50;;;;;;;13.35;1.25;;;15.50;73.80;;;;;;4864553;29;20064;-70
2023/01/02 06:46:18;;;;;;;8.27;1.50;;;15.60;74.20;;;;;;4880910;29;20045;-78
2023/01/02 06:48:44;;;;;;;8.52;1.38;;;15.70;74.40;;;;;;4880716;29;20053;-79
2023/01/02 06:51:13;;;;;;;15.10;1.50;;;15.80;74.60;;;;;;4881300;29;20361;-77
2023/01/02 06:53:40;;;;;;;8.35;1.42;;;15.80;74.80;;;;;;4864125;29;20049;-79
2023/01/02 06:56:07;;;;;;;15.10;1.83;;;15.80;74.90;;;;;;4880472;29;20068;-75
2023/01/02 06:58:34;;;;;;;12.75;2.25;;;15.80;74.90;;;;;;4880216;29;20049;-76
2023/01/02 07:01:05;;;;;;;15.10;1.65;;;15.90;75.20;;;;;;4880270;29;20057;-77
2023/01/02 07:03:31;;;;;;;12.05;1.92;;;15.90;75.30;;;;;;4880551;29;20068;-78
2023/01/02 07:06:06;;;;;;;11.95;1.42;;;15.80;74.30;;;;;;4864435;29;20457;-75
2023/01/02 07:08:32;;;;;;;9.82;1.13;;;15.60;72.80;;;;;;4863940;29;20057;-76
2023/01/02 07:11:20;;;;;;;16.05;1.88;;;15.40;72.10;;;;;;4864300;29;20168;-78
2023/01/02 07:13:47;;;;;;;16.70;1.38;;;15.40;75.50;;;;;;4883858;29;20102;-80
2023/01/02 07:16:14;;;;;;;11.23;1.35;;;15.60;75.50;;;;;;4883953;29;20397;-78
2023/01/02 07:18:40;;;;;;;11.30;1.88;;;15.80;75.60;;;;;;4883808;29;20053;-78
2023/01/02 07:21:08;;;;;;;4.90;0.75;;;16.00;75.40;;;;;;4883487;29;20057;-78
2023/01/02 07:23:34;;;;;;;12.20;1.73;;;16.10;75.10;;;;;;4884382;29;20116;-78
2023/01/02 07:26:01;;;;;;;8.10;1.30;;;16.20;74.80;;;;;;4884206;29;20064;-79
2023/01/02 07:28:28;;;;;;;11.50;1.35;;;16.30;74.70;;;;;;4883847;29;20049;-77
2023/01/02 07:31:02;;;;;;;9.88;1.52;;;16.40;74.70;;;;;;4883671;29;20051;-79
2023/01/02 07:33:29;;;;;;;11.43;1.33;;;16.40;74.80;;;;;;4883324;29;20048;-77
2023/01/02 07:35:59;;;;;;;7.35;1.17;;;16.50;74.70;;;;;;4884217;29;20053;-77
2023/01/02 07:38:26;;;;;;;9.95;0.95;;;16.60;74.60;;;;;;4883348;29;20056;-77
2023/01/02 07:40:51;;;;;;;7.30;1.10;;;16.70;74.60;;;;;;4883565;29;20341;-77
2023/01/02 07:43:17;;;;;;;6.68;0.88;;;16.70;74.40;;;;;;4883096;29;20059;-76
2023/01/02 07:45:43;;;;;;;9.25;0.80;;;16.70;74.40;;;;;;4867767;29;20060;-77
2023/01/02 07:48:09;;;;;;;5.20;1.10;;;16.70;74.50;;;;;;4883216;29;20059;-74
2023/01/02 07:50:34;;;;;;;9.68;1.10;;;16.70;74.50;;;;;;4883294;29;20167;-74
2023/01/02 07:53:00;;;;;;;13.88;1.63;;;16.70;73.80;;;;;;4883244;29;20116;-78
2023/01/02 07:55:26;;;;;;;9.77;0.90;;;16.60;73.20;;;;;;4883179;29;20053;-79
2023/01/02 07:57:51;;;;;;;12.55;1.13;;;16.60;73.30;;;;;;4882980;29;20135;-79
2023/01/02 08:00:18;;;;;;;10.63;1.20;;;16.60;72.70;;;;;;4883220;29;20101;-77
2023/01/02 08:02:44;;;;;;;16.45;1.42;;;16.50;72.70;;;;;;4882962;29;20045;-78
2023/01/02 08:05:10;;;;;;;10.52;1.80;;;16.50;72.90;;;;;;4883742;29;20171;-75
2023/01/02 08:07:35;;;;;;;13.63;1.67;;;16.40;73.20;;;;;;4883338;29;20372;-78
2023/01/02 08:10:01;;;;;;;17.27;2.75;;;16.40;73.40;;;;;;4866045;29;20061;-79
2023/01/02 08:12:27;;;;;;;28.48;2.97;;;16.40;73.70;;;;;;4883199;29;20049;-80
2023/01/02 08:14:53;;;;;;;14.45;1.38;;;16.40;73.80;;;;;;4866737;29;20475;-78
2023/01/02 08:17:19;;;;;;;14.93;1.48;;;16.40;73.90;;;;;;4882745;29;20048;-79
2023/01/02 08:19:44;;;;;;;13.48;1.95;;;16.40;73.90;;;;;;4882363;29;20115;-78
2023/01/02 08:22:10;;;;;;;16.13;1.75;;;16.30;73.80;;;;;;4882623;29;20068;-80
2023/01/02 08:24:36;;;;;;;14.75;1.73;;;16.30;73.70;;;;;;4882648;29;20037;-82
2023/01/02 08:27:01;;;;;;;13.40;1.95;;;16.30;73.80;;;;;;4851254;29;20075;-80
2023/01/02 08:29:27;;;;;;;13.75;1.45;;;16.20;73.90;;;;;;4866432;29;20045;-81
2023/01/02 08:31:53;;;;;;;13.00;1.85;;;16.30;73.80;;;;;;4850799;29;20124;-81
2023/01/02 08:34:18;;;;;;;14.98;1.50;;;16.20;73.40;;;;;;4851193;29;20084;-75
2023/01/02 08:36:44;;;;;;;10.30;1.65;;;16.20;73.30;;;;;;4882947;29;20051;-71
2023/01/02 08:39:10;;;;;;;13.05;1.30;;;16.20;73.20;;;;;;4866510;29;20536;-73
2023/01/02 08:41:37;;;;;;;9.18;1.48;;;16.20;71.80;;;;;;4865996;29;20049;-72
2023/01/02 08:44:03;;;;;;;16.85;1.67;;;16.10;70.40;;;;;;4881902;29;20060;-80
2023/01/02 08:46:33;;;;;;;21.65;1.40;;;16.00;70.20;;;;;;4882409;29;20088;-79
2023/01/02 08:48:59;;;;;;;7.15;1.08;;;16.00;70.20;;;;;;4865967;29;20053;-78
2023/01/02 08:51:25;;;;;;;7.15;1.33;;;16.00;70.40;;;;;;4865668;29;20360;-79
2023/01/02 08:53:51;;;;;;;11.02;1.27;;;16.00;70.40;;;;;;4866026;29;20049;-78
2023/01/02 08:56:24;;;;;;;10.57;1.13;;;16.00;70.40;;;;;;4882195;29;20048;-78
2023/01/02 08:59:01;;;;;;;5.43;1.23;;;15.90;70.40;;;;;;4882227;29;20045;-78
2023/01/02 09:01:29;;;;;;;7.90;0.70;;;16.00;70.40;;;;;;4881776;29;20053;-78
2023/01/02 09:03:55;;;;;;;6.55;0.90;;;15.90;70.40;;;;;;4865783;29;20053;-79
2023/01/02 09:06:22;;;;;;;4.35;0.80;;;15.90;70.40;;;;;;4881942;29;20049;-80
2023/01/02 09:08:55;;;;;;;5.50;1.13;;;15.90;70.60;;;;;;4865052;29;20201;-77
2023/01/02 09:11:27;;;;;;;8.07;1.05;;;15.90;71.00;;;;;;4881655;29;20049;-80
2023/01/02 09:13:54;;;;;;;6.70;1.33;;;15.90;71.20;;;;;;4881791;29;20057;-78
2023/01/02 09:16:20;;;;;;;6.57;0.90;;;15.90;71.30;;;;;;4881319;29;20057;-80
2023/01/02 09:18:46;;;;;;;6.35;0.65;;;15.80;71.30;;;;;;4881578;29;20092;-80
2023/01/02 09:21:11;;;;;;;11.40;1.10;;;15.80;71.40;;;;;;4884458;29;20068;-78
2023/01/02 09:23:37;;;;;;;7.07;0.85;;;15.90;71.60;;;;;;4881610;29;20422;-77
2023/01/02 09:26:05;;;;;;;5.22;0.98;;;15.80;71.70;;;;;;4865441;29;20379;-80
2023/01/02 09:28:33;;;;;;;4.82;0.60;;;15.80;71.80;;;;;;4881524;29;20049;-80
2023/01/02 09:31:02;;;;;;;5.75;1.00;;;15.80;71.80;;;;;;4881562;29;20049;-78
2023/01/02 09:33:28;;;;;;;5.38;0.43;;;15.80;72.00;;;;;;4865651;29;20065;-78
2023/01/02 09:35:53;;;;;;;5.13;1.10;;;15.80;72.00;;;;;;4881026;29;20056;-79
2023/01/02 09:38:19;;;;;;;8.05;1.10;;;15.80;72.00;;;;;;4881727;29;20067;-78
2023/01/02 09:40:52;;;;;;;5.40;0.70;;;15.80;72.00;;;;;;4864709;29;20093;-79
2023/01/02 09:43:31;;;;;;;3.42;0.57;;;15.80;72.00;;;;;;4880791;29;20452;-80
2023/01/02 09:46:00;;;;;;;8.80;1.38;;;15.80;72.10;;;;;;4880836;29;20068;-78
2023/01/02 09:48:34;;;;;;;6.53;0.57;;;15.80;72.50;;;;;;4880891;29;20048;-76
2023/01/02 09:51:04;;;;;;;7.43;1.48;;;15.80;72.50;;;;;;4881160;29;20452;-77
2023/01/02 09:53:32;;;;;;;4.10;0.50;;;15.80;72.60;;;;;;4880782;29;20532;-77
2023/01/02 09:56:23;;;;;;;3.08;0.60;;;15.70;72.60;;;;;;4865325;29;20124;-77
2023/01/02 09:59:11;;;;;;;4.85;0.70;;;15.70;72.50;;;;;;4881262;29;20138;-78
2023/01/02 10:01:43;;;;;;;4.80;0.60;;;15.70;72.50;;;;;;4881066;29;20053;-78
2023/01/02 10:04:17;;;;;;;1.65;0.40;;;15.80;72.60;;;;;;4849717;29;20113;-77
2023/01/02 10:06:58;;;;;;;2.75;0.30;;;15.70;72.40;;;;;;4881230;29;20093;-80
2023/01/02 10:09:31;;;;;;;4.32;0.38;;;15.80;72.40;;;;;;4880696;29;20380;-77
2023/01/02 10:12:25;;;;;;;3.20;0.57;;;15.80;72.40;;;;;;4881234;29;20075;-80
2023/01/02 10:15:04;;;;;;;1.77;0.50;;;15.80;72.40;;;;;;4881168;29;20109;-79
2023/01/02 10:17:36;;;;;;;2.05;0.50;;;15.80;72.40;;;;;;4880425;29;20123;-78
2023/01/02 10:20:18;;;;;;;3.40;0.65;;;15.80;72.40;;;;;;4878154;29;20494;-80
2023/01/02 10:22:50;;;;;;;2.40;0.50;;;15.80;73.00;;;;;;4864235;29;20092;-78
2023/01/02 10:25:32;;;;;;;2.45;0.45;;;15.80;72.40;;;;;;4865023;29;20452;-79
2023/01/02 10:28:12;;;;;;;2.80;0.47;;;15.70;72.40;;;;;;4881147;29;20056;-78
2023/01/02 10:30:44;;;;;;;2.65;0.55;;;15.70;70.10;;;;;;4864782;29;20049;-77
2023/01/02 10:33:19;;;;;;;3.20;0.47;;;15.60;67.60;;;;;;4881159;29;20053;-79
2023/01/02 10:35:58;;;;;;;4.47;0.63;;;15.40;68.00;;;;;;4880962;29;20109;-77
2023/01/02 10:38:35;;;;;;;7.78;1.00;;;15.20;68.20;;;;;;4864769;29;20053;-79
2023/01/02 10:41:01;;;;;;;11.75;0.98;;;15.00;68.10;;;;;;4864676;29;20456;-79
2023/01/02 10:43:28;;;;;;;9.68;1.15;;;14.90;68.90;;;;;;4880979;29;20041;-76
2023/01/02 10:45:54;;;;;;;11.00;1.52;;;14.80;69.70;;;;;;4880256;29;20093;-80
2023/01/02 10:48:24;;;;;;;3.30;0.90;;;14.90;70.30;;;;;;4883037;29;20472;-77
2023/01/02 10:50:55;;;;;;;7.80;0.80;;;14.90;70.50;;;;;;4883180;29;20045;-76
2023/01/02 10:53:36;;;;;;;12.32;1.65;;;15.10;70.60;;;;;;4884570;29;20429;-76
2023/01/02 10:56:13;;;;;;;8.25;0.98;;;15.30;70.80;;;;;;4884213;29;20049;-80
2023/01/02 10:58:47;;;;;;;8.23;1.33;;;15.40;70.70;;;;;;4868075;29;20049;-76
2023/01/02 11:01:20;;;;;;;8.10;0.82;;;15.50;70.50;;;;;;4883508;29;20053;-75
2023/01/02 11:04:11;;;;;;;9.65;1.67;;;15.70;70.60;;;;;;4867886;29;20084;-81
2023/01/02 11:06:51;;;;;;;6.03;0.82;;;15.70;70.60;;;;;;4884054;29;20068;-79
2023/01/02 11:09:27;;;;;;;9.05;0.90;;;15.80;70.60;;;;;;4883432;29;20061;-72
2023/01/02 11:11:56;;;;;;;10.45;1.17;;;15.80;70.60;;;;;;4884223;29;20057;-72
2023/01/02 11:14:33;;;;;;;6.75;1.13;;;15.80;70.70;;;;;;4884563;29;20449;-72
2023/01/02 11:17:14;;;;;;;9.55;1.17;;;15.90;70.80;;;;;;4867970;29;20116;-72
2023/01/02 11:19:48;;;;;;;7.38;0.82;;;15.90;70.80;;;;;;4883129;29;20063;-72
2023/01/02 11:22:20;;;;;;;14.70;1.25;;;15.90;70.90;;;;;;4883834;29;20106;-73
2023/01/02 11:24:59;;;;;;;10.63;1.35;;;15.90;70.90;;;;;;4883871;29;20049;-73
2023/01/02 11:27:40;;;;;;;5.80;1.10;;;15.90;70.90;;;;;;4883573;29;20059;-73
2023/01/02 11:30:07;;;;;;;4.65;0.70;;;15.90;70.90;;;;;;4866157;29;20113;-74
2023/01/02 11:32:39;;;;;;;4.80;0.82;;;15.90;70.90;;;;;;4882225;29;20402;-76
2023/01/02 11:35:35;;;;;;;5.53;1.00;;;16.00;71.00;;;;;;4864034;29;20114;-74
2023/01/02 11:38:01;;;;;;;9.93;1.50;;;16.10;71.00;;;;;;4864883;29;20385;-74
2023/01/02 11:40:31;;;;;;;9.45;1.20;;;16.10;70.90;;;;;;4865001;29;20059;-73
2023/01/02 11:45:51;;;;;;;8.15;1.25;;;16.40;70.60;;;;;;4863143;29;20089;-75
2023/01/02 11:48:21;;;;;;;5.68;1.08;;;16.50;70.50;;;;;;4873994;29;20374;-72
2023/01/02 11:50:48;;;;;;;7.32;0.90;;;16.50;70.40;;;;;;4882428;29;20049;-72
2023/01/02 11:53:28;;;;;;;13.60;1.80;;;16.60;69.80;;;;;;4883093;29;20413;-72
2023/01/02 11:56:15;;;;;;;12.05;1.83;;;16.60;69.30;;;;;;4866802;29;20064;-75
2023/01/02 11:59:01;;;;;;;9.82;0.95;;;16.60;69.30;;;;;;4882547;29;20045;-73
2023/01/02 12:01:48;;;;;;;13.02;1.48;;;16.70;69.20;;;;;;4881120;29;20057;-77
2023/01/02 12:04:14;;;;;;;6.28;0.80;;;16.70;69.30;;;;;;4883213;29;20045;-75
2023/01/02 12:07:09;;;;;;;4.68;0.63;;;16.70;69.30;;;;;;4867033;29;20116;-75
2023/01/02 12:10:04;;;;;;;3.45;0.57;;;16.80;69.40;;;;;;4882933;29;20053;-74
2023/01/02 12:13:01;;;;;;;6.88;0.75;;;16.80;69.50;;;;;;4866663;29;20049;-73
2023/01/02 12:15:55;;;;;;;8.55;0.85;;;16.70;69.50;;;;;;4866465;29;20103;-73
2023/01/02 12:18:40;;;;;;;4.70;1.40;;;16.70;69.80;;;;;;4883081;29;20156;-75
2023/01/02 12:21:24;;;;;;;4.75;0.90;;;16.60;69.80;;;;;;4882963;29;20057;-73
2023/01/02 12:23:55;;;;;;;5.22;0.70;;;16.70;69.80;;;;;;4866031;29;20053;-73
2023/01/02 12:26:30;;;;;;;4.80;0.70;;;16.60;69.90;;;;;;4883385;29;20361;-73
2023/01/02 12:29:24;;;;;;;7.68;1.67;;;16.60;70.00;;;;;;4866867;29;20055;-73
2023/01/02 12:32:17;;;;;;;9.55;1.23;;;16.50;70.00;;;;;;4882905;29;20053;-73
2023/01/02 12:35:08;;;;;;;7.95;1.33;;;16.60;70.00;;;;;;4882670;29;20057;-74
2023/01/02 12:37:48;;;;;;;8.13;0.70;;;16.50;70.10;;;;;;4882101;29;20131;-73
2023/01/02 12:40:33;;;;;;;7.32;1.10;;;16.50;70.20;;;;;;4881594;29;20049;-74
2023/01/02 12:43:15;;;;;;;6.53;1.10;;;16.50;70.20;;;;;;4865284;29;20053;-73
2023/01/02 12:45:55;;;;;;;4.80;1.05;;;16.50;70.20;;;;;;4880295;29;20088;-72
2023/01/02 12:48:24;;;;;;;7.38;1.02;;;16.50;70.20;;;;;;4882177;29;20058;-73
2023/01/02 12:51:25;;;;;;;8.95;1.35;;;16.50;70.20;;;;;;4881677;29;20056;-74
2023/01/02 12:54:14;;;;;;;5.90;1.55;;;16.50;70.20;;;;;;4878165;29;20092;-73
2023/01/02 12:57:17;;;;;;;8.43;1.00;;;16.50;70.20;;;;;;4860651;29;20068;-73
2023/01/02 13:00:15;;;;;;;6.38;0.75;;;16.60;70.20;;;;;;4882206;29;20060;-73
2023/01/02 13:02:58;;;;;;;5.47;0.93;;;16.60;70.20;;;;;;4865854;29;20401;-74
2023/01/02 13:05:32;;;;;;;7.13;1.00;;;16.60;70.30;;;;;;4881978;29;20109;-74
2023/01/02 13:08:06;;;;;;;10.32;2.03;;;16.60;70.20;;;;;;4881398;29;20052;-72
2023/01/02 13:10:33;;;;;;;12.35;1.65;;;16.50;70.10;;;;;;4880777;29;20049;-75
2023/01/02 13:13:00;;;;;;;10.13;1.60;;;16.50;70.50;;;;;;4882135;29;20105;-75
2023/01/02 13:15:36;;;;;;;9.52;1.20;;;16.40;70.40;;;;;;4882000;29;20048;-75
2023/01/02 13:18:06;;;;;;;12.05;1.35;;;16.50;70.60;;;;;;4865877;29;20113;-78
2023/01/02 13:21:13;;;;;;;12.48;1.40;;;16.50;70.80;;;;;;4881458;29;20056;-81
2023/01/02 13:23:50;;;;;;;13.57;2.65;;;16.40;70.90;;;;;;4851037;29;20064;-80
2023/01/02 13:26:20;;;;;;;21.77;2.80;;;16.50;71.20;;;;;;4865033;29;20052;-80
2023/01/02 13:28:55;;;;;;;20.45;2.80;;;16.50;71.40;;;;;;4850026;29;20053;-78
2023/01/02 13:31:21;;;;;;;26.38;3.47;;;16.50;71.50;;;;;;4865727;29;20063;-77
2023/01/02 13:33:49;;;;;;;22.58;2.88;;;16.50;71.30;;;;;;4881338;29;20049;-76
2023/01/02 13:36:50;;;;;;;15.23;1.98;;;16.50;70.90;;;;;;4868003;29;20124;-77
2023/01/02 13:39:18;;;;;;;14.48;3.00;;;16.50;70.20;;;;;;4845926;29;20068;-75
2023/01/02 13:44:37;;;;;;;19.90;2.65;;;16.40;69.80;;;;;;4881762;29;20065;-75
2023/01/02 13:47:19;;;;;;;18.05;2.88;;;16.40;70.00;;;;;;4881018;29;20055;-78
2023/01/02 13:49:50;;;;;;;27.67;3.25;;;16.30;69.90;;;;;;4880780;29;20097;-82
2023/01/02 13:52:19;;;;;;;18.75;2.08;;;16.30;70.20;;;;;;4846906;29;20132;-83
2023/01/02 13:55:32;;;;;;;20.48;3.20;;;16.30;70.00;;;;;;4853536;29;20044;-81
2023/01/02 13:58:16;;;;;;;14.05;2.70;;;16.30;70.20;;;;;;4864479;29;20049;-79
2023/01/02 14:00:47;;;;;;;34.13;3.17;;;16.40;70.10;;;;;;4867067;29;20086;-79
2023/01/02 14:03:22;;;;;;;21.73;3.17;;;16.40;69.70;;;;;;4881425;29;20361;-78
2023/01/02 14:06:02;;;;;;;22.92;2.95;;;16.40;69.60;;;;;;4881271;29;20041;-81
2023/01/02 14:08:31;;;;;;;20.38;3.38;;;16.40;69.60;;;;;;4880603;29;20099;-82
2023/01/02 14:11:18;;;;;;;22.50;3.17;;;16.40;69.30;;;;;;4889959;29;20068;-80
2023/01/02 14:13:49;;;;;;;12.80;3.33;;;16.40;68.80;;;;;;4871300;29;20049;-78
2023/01/02 14:16:24;;;;;;;11.45;2.38;;;16.40;68.10;;;;;;4887547;29;20409;-79
2023/01/02 14:19:16;;;;;;;13.77;2.40;;;16.40;66.90;;;;;;4888251;29;20047;-80
2023/01/02 14:21:50;;;;;;;11.02;2.28;;;16.40;66.60;;;;;;4891719;29;20124;-81
2023/01/02 14:24:42;;;;;;;9.57;2.17;;;16.40;66.80;;;;;;4893081;29;20048;-78
2023/01/02 14:27:14;;;;;;;14.30;2.72;;;16.40;66.60;;;;;;4892060;29;20178;-79
2023/01/02 14:29:50;;;;;;;11.70;2.13;;;16.30;66.70;;;;;;4877171;29;20049;-78
2023/01/02 14:32:23;;;;;;;11.85;2.15;;;16.30;67.10;;;;;;4891550;29;20468;-79
2023/01/02 14:34:55;;;;;;;6.95;1.67;;;16.30;67.20;;;;;;4892511;29;20128;-80
2023/01/02 14:37:38;;;;;;;11.05;2.00;;;16.30;67.30;;;;;;4893216;29;20045;-77
2023/01/02 14:40:23;;;;;;;14.95;2.20;;;16.30;67.60;;;;;;4893520;29;20053;-75
2023/01/02 14:45:49;;;;;;;12.38;2.13;;;16.30;68.10;;;;;;4891051;29;20065;-79
2023/01/02 14:48:28;;;;;;;10.68;2.13;;;16.20;68.30;;;;;;4891124;29;20065;-78
2023/01/02 14:50:55;;;;;;;11.88;1.83;;;16.30;68.60;;;;;;4859014;29;20053;-78
2023/01/02 14:53:25;;;;;;;10.70;2.03;;;16.20;68.80;;;;;;4892491;29;20368;-77
2023/01/02 14:56:00;;;;;;;10.55;2.53;;;16.20;69.00;;;;;;4889757;29;20049;-78
2023/01/02 14:58:39;;;;;;;10.82;1.80;;;16.20;69.40;;;;;;4889458;29;20045;-80
2023/01/02 15:01:07;;;;;;;6.85;1.52;;;16.20;68.50;;;;;;4883245;29;20120;-79
2023/01/02 15:03:53;;;;;;;10.55;1.60;;;16.20;68.50;;;;;;4844022;29;20069;-78
2023/01/02 15:06:37;;;;;;;9.68;1.85;;;16.10;68.20;;;;;;4890774;29;20088;-75
2023/01/02 15:09:37;;;;;;;5.90;1.63;;;16.10;68.30;;;;;;4893048;29;20101;-79
2023/01/02 15:15:14;;;;;;;8.95;1.60;;;16.10;68.30;;;;;;4893437;29;20457;-81
2023/01/02 15:17:41;;;;;;;7.82;1.42;;;16.10;68.40;;;;;;4891247;29;20095;-77
2023/01/02 15:20:10;;;;;;;11.20;2.42;;;16.00;68.50;;;;;;4867873;29;20136;-75
2023/01/02 15:22:36;;;;;;;8.45;1.90;;;16.00;68.60;;;;;;4867728;29;20056;-73
2023/01/02 15:25:02;;;;;;;12.23;2.05;;;16.00;68.50;;;;;;4884086;29;20056;-73
2023/01/02 15:27:32;;;;;;;11.45;2.20;;;16.00;68.60;;;;;;4885579;29;20102;-74
2023/01/02 15:30:00;;;;;;;13.20;2.30;;;16.00;68.60;;;;;;4883708;29;20444;-72
2023/01/02 15:32:30;;;;;;;12.85;2.03;;;16.00;68.60;;;;;;4882358;29;20131;-80
2023/01/02 15:35:23;;;;;;;12.98;2.25;;;16.00;68.30;;;;;;4866951;29;20056;-79
2023/01/02 15:37:49;;;;;;;11.63;2.30;;;16.00;69.00;;;;;;4866781;29;20049;-84
2023/01/02 15:40:33;;;;;;;15.30;2.10;;;16.00;68.50;;;;;;4866894;29;20116;-79
2023/01/02 15:46:07;;;;;;;14.93;2.75;;;16.00;68.70;;;;;;4882479;29;20098;-82
2023/01/02 15:48:33;;;;;;;9.70;1.65;;;16.10;69.00;;;;;;4866452;29;20052;-79
2023/01/02 15:50:59;;;;;;;14.25;2.35;;;16.10;69.20;;;;;;4851137;29;20529;-76
2023/01/02 15:53:39;;;;;;;11.70;2.38;;;16.20;69.50;;;;;;4883100;29;20041;-75
2023/01/02 15:56:05;;;;;;;10.23;2.30;;;16.20;69.50;;;;;;4883474;29;20376;-74
2023/01/02 15:58:34;;;;;;;15.98;2.55;;;16.30;69.80;;;;;;4882257;29;20059;-79
2023/01/02 16:01:20;;;;;;;16.65;2.83;;;16.30;70.60;;;;;;4883173;29;20422;-76
2023/01/02 16:03:49;;;;;;;18.20;3.03;;;16.40;70.50;;;;;;4883210;29;20053;-76
2023/01/02 16:06:32;;;;;;;17.38;2.65;;;16.40;72.10;;;;;;4883220;29;20052;-77
2023/01/02 16:09:04;;;;;;;12.52;2.10;;;16.50;73.30;;;;;;4882655;29;20052;-76
2023/01/02 16:11:57;;;;;;;11.70;2.30;;;16.50;74.40;;;;;;4850768;29;20400;-78
2023/01/02 16:14:49;;;;;;;9.85;2.50;;;16.50;75.80;;;;;;4879569;29;20063;-76
2023/01/02 16:17:31;;;;;;;16.15;2.38;;;16.50;76.80;;;;;;4869649;29;20107;-79
2023/01/02 16:20:12;;;;;;;17.67;3.15;;;16.60;77.70;;;;;;4884314;29;20104;-80
2023/01/02 16:22:58;;;;;;;18.33;2.80;;;16.60;77.50;;;;;;4901742;29;20048;-78
2023/01/02 16:25:30;;;;;;;13.65;2.70;;;16.60;77.40;;;;;;4884905;29;20120;-79
2023/01/02 16:28:21;;;;;;;17.83;2.85;;;16.60;77.90;;;;;;4869502;29;20040;-77
2023/01/02 16:30:47;;;;;;;16.67;2.63;;;16.60;78.50;;;;;;4884929;29;20047;-79
2023/01/02 16:33:33;;;;;;;14.45;2.33;;;16.60;78.40;;;;;;4884841;29;20044;-78
2023/01/02 16:36:04;;;;;;;11.45;2.45;;;16.60;78.50;;;;;;4884812;29;20368;-78
2023/01/02 16:38:51;;;;;;;17.92;2.63;;;16.50;78.60;;;;;;4869260;29;20126;-79
2023/01/02 16:41:37;;;;;;;11.00;2.25;;;16.50;78.50;;;;;;4867812;29;20060;-76
2023/01/02 16:44:11;;;;;;;12.10;1.90;;;16.50;78.20;;;;;;4850120;29;20104;-77
2023/01/02 16:46:37;;;;;;;14.25;2.05;;;16.50;78.00;;;;;;4850440;29;20045;-77
2023/01/02 16:49:03;;;;;;;20.35;2.38;;;16.50;77.80;;;;;;4882586;29;20053;-76
2023/01/02 16:51:29;;;;;;;16.48;2.53;;;16.50;77.50;;;;;;4866303;29;20049;-77
2023/01/02 16:53:55;;;;;;;21.65;3.20;;;16.40;77.40;;;;;;4882266;29;20434;-75
2023/01/02 16:56:22;;;;;;;17.35;2.35;;;16.40;77.30;;;;;;4882270;29;20056;-77
2023/01/02 16:58:48;;;;;;;11.98;2.38;;;16.40;77.20;;;;;;4882596;29;20376;-76
2023/01/02 17:01:16;;;;;;;9.90;1.85;;;16.40;77.20;;;;;;4882572;29;20054;-76
2023/01/02 17:03:44;;;;;;;15.93;2.40;;;16.40;76.90;;;;;;4865639;29;20085;-76
2023/01/02 17:06:12;;;;;;;19.55;2.72;;;16.40;76.80;;;;;;4882683;29;20420;-78
2023/01/02 17:08:39;;;;;;;13.63;3.70;;;16.40;76.70;;;;;;4881848;29;20128;-78
2023/01/02 17:11:05;;;;;;;12.55;2.78;;;16.40;76.60;;;;;;4882704;29;20053;-73
2023/01/02 17:13:30;;;;;;;12.18;2.30;;;16.40;76.30;;;;;;4882152;29;20433;-74
2023/01/02 17:15:56;;;;;;;13.77;2.00;;;16.40;73.60;;;;;;4881642;29;20041;-74
2023/01/02 17:18:24;;;;;;;16.20;3.85;;;16.40;70.30;;;;;;4882592;29;20052;-80
2023/01/02 17:20:50;;;;;;;12.75;2.65;;;16.20;68.80;;;;;;4900615;29;20040;-74
2023/01/02 17:23:18;;;;;;;9.73;2.35;;;16.20;69.20;;;;;;4900664;29;20067;-75
2023/01/02 17:25:44;;;;;;;7.93;1.63;;;16.20;68.80;;;;;;4900531;29;20515;-77
2023/01/02 17:28:10;;;;;;;14.65;2.30;;;16.10;68.20;;;;;;4883893;29;20032;-77
2023/01/02 17:30:36;;;;;;;8.80;2.50;;;16.10;68.40;;;;;;4900305;29;20096;-78
2023/01/02 17:33:01;;;;;;;9.73;1.95;;;16.10;68.60;;;;;;4900242;29;20040;-75
2023/01/02 17:35:27;;;;;;;10.48;2.03;;;16.10;68.90;;;;;;4900439;29;20063;-78